createdAt,value
2017-08-30T00:00:28.804Z,27.83
2017-08-30T00:05:31.466Z,24.03
2017-08-30T00:10:34.494Z,22.53
2017-08-30T00:15:37.109Z,24.70
2017-08-30T00:20:39.772Z,22.50
2017-08-30T00:26:00.438Z,23.37
2017-08-30T00:31:03.186Z,26.80
2017-08-30T00:36:05.565Z,20.90
2017-08-30T00:41:08.347Z,28.73
2017-08-30T00:46:11.032Z,28.63
2017-08-30T00:51:13.778Z,21.37
2017-08-30T00:56:16.527Z,28.00
2017-08-30T01:01:18.940Z,23.10
2017-08-30T01:06:21.587Z,32.10
2017-08-30T01:11:23.932Z,20.03
2017-08-30T01:16:26.001Z,27.63
2017-08-30T01:21:28.782Z,23.60
2017-08-30T01:26:30.752Z,20.67
2017-08-30T01:31:33.390Z,22.17
2017-08-30T01:36:35.770Z,21.37
2017-08-30T01:41:38.076Z,24.97
2017-08-30T01:46:41.285Z,22.10
2017-08-30T01:51:43.923Z,26.07
2017-08-30T01:56:47.035Z,22.50
2017-08-30T02:01:49.751Z,25.90
2017-08-30T02:06:52.376Z,20.17
2017-08-30T02:11:54.985Z,21.23
2017-08-30T02:16:57.566Z,18.13
2017-08-30T02:22:00.315Z,21.57
2017-08-30T02:27:02.380Z,21.60
2017-08-30T02:32:05.100Z,20.33
2017-08-30T02:37:07.856Z,23.23
2017-08-30T02:42:10.514Z,21.60
2017-08-30T02:47:13.186Z,20.80
2017-08-30T02:52:20.996Z,18.73
2017-08-30T02:57:28.304Z,21.87
2017-08-30T03:02:32.107Z,23.73
2017-08-30T03:07:34.901Z,18.90
2017-08-30T03:12:38.104Z,23.43
2017-08-30T03:17:41.241Z,18.23
2017-08-30T03:22:44.710Z,19.50
2017-08-30T03:27:47.335Z,16.00
2017-08-30T03:32:50.012Z,17.53
2017-08-30T03:37:52.897Z,17.67
2017-08-30T03:42:57.298Z,19.93
2017-08-30T03:48:01.338Z,21.77
2017-08-30T03:53:05.108Z,32.50
2017-08-30T03:58:07.733Z,25.67
2017-08-30T04:03:10.670Z,17.10
2017-08-30T04:08:13.781Z,20.00
2017-08-30T04:13:16.017Z,21.23
2017-08-30T04:18:19.073Z,18.97
2017-08-30T04:23:21.825Z,14.77
2017-08-30T04:28:24.342Z,18.10
2017-08-30T04:33:26.339Z,15.20
2017-08-30T04:38:28.843Z,18.10
2017-08-30T04:43:31.448Z,17.53
2017-08-30T04:48:36.328Z,18.83
2017-08-30T04:53:38.327Z,18.50
2017-08-30T04:58:40.323Z,15.33
2017-08-30T05:03:42.311Z,16.33
2017-08-30T05:08:44.307Z,21.13
2017-08-30T05:13:46.309Z,20.10
2017-08-30T05:18:50.668Z,15.63
2017-08-30T05:23:52.672Z,16.87
2017-08-30T05:29:05.980Z,13.57
2017-08-30T05:34:09.922Z,16.20
2017-08-30T05:39:14.089Z,18.50
2017-08-30T05:44:17.198Z,24.30
2017-08-30T05:49:24.588Z,18.13
2017-08-30T05:54:26.759Z,13.33
2017-08-30T05:59:28.773Z,10.60
2017-08-30T06:04:30.901Z,14.77
2017-08-30T06:09:33.815Z,13.00
2017-08-30T06:14:37.512Z,14.20
2017-08-30T06:19:40.760Z,13.80
2017-08-30T06:24:46.520Z,20.50
2017-08-30T06:29:52.278Z,13.17
2017-08-30T06:34:59.505Z,14.13
2017-08-30T06:40:03.213Z,15.80
2017-08-30T06:45:07.072Z,14.20
2017-08-30T06:50:10.278Z,18.13
2017-08-30T06:55:16.835Z,11.07
2017-08-30T07:00:20.236Z,14.20
2017-08-30T07:05:24.228Z,17.97
2017-08-30T07:10:31.755Z,15.10
2017-08-30T07:15:36.909Z,21.47
2017-08-30T07:20:38.899Z,14.43
2017-08-30T07:25:41.362Z,10.57
2017-08-30T07:30:44.886Z,12.73
2017-08-30T07:35:49.016Z,10.97
2017-08-30T07:40:52.742Z,9.13
2017-08-30T07:45:56.727Z,18.17
2017-08-30T07:51:03.767Z,10.33
2017-08-30T07:56:08.620Z,10.33
2017-08-30T08:01:12.355Z,11.97
2017-08-30T08:06:20.220Z,9.50
2017-08-30T08:11:26.507Z,10.83
2017-08-30T08:16:31.320Z,11.17
2017-08-30T08:21:34.964Z,13.67
2017-08-30T08:26:37.603Z,14.07
2017-08-30T08:31:40.219Z,16.70
2017-08-30T08:36:42.666Z,9.90
2017-08-30T08:41:46.132Z,12.50
2017-08-30T08:46:49.990Z,13.20
2017-08-30T08:51:52.314Z,12.63
2017-08-30T08:56:54.616Z,12.90
2017-08-30T09:01:56.865Z,14.03
2017-08-30T09:06:59.081Z,9.07
2017-08-30T09:12:01.326Z,17.33
2017-08-30T09:17:03.797Z,17.03
2017-08-30T09:22:06.171Z,8.83
2017-08-30T09:27:08.744Z,15.13
2017-08-30T09:32:10.980Z,15.40
2017-08-30T09:37:13.418Z,13.70
2017-08-30T09:42:15.783Z,13.87
2017-08-30T09:47:21.139Z,10.47
2017-08-30T09:52:26.159Z,16.73
2017-08-30T09:57:31.411Z,16.03
2017-08-30T10:02:35.707Z,11.57
2017-08-30T10:07:39.934Z,20.47
2017-08-30T10:12:44.730Z,15.33
2017-08-30T10:17:49.880Z,21.30
2017-08-30T10:22:55.113Z,14.23
2017-08-30T10:27:58.808Z,8.80
2017-08-30T10:33:02.303Z,14.37
2017-08-30T10:38:06.772Z,10.47
2017-08-30T10:43:21.685Z,12.43
2017-08-30T10:48:25.092Z,19.33
2017-08-30T10:53:30.940Z,19.50
2017-08-30T10:58:33.556Z,10.40
2017-08-30T11:03:35.921Z,11.60
2017-08-30T11:08:38.365Z,17.40
2017-08-30T11:13:45.186Z,18.63
2017-08-30T11:18:47.475Z,16.43
2017-08-30T11:23:50.034Z,20.27
2017-08-30T11:28:52.615Z,10.67
2017-08-30T11:33:54.947Z,12.70
2017-08-30T11:39:04.128Z,16.30
2017-08-30T11:44:06.419Z,10.10
2017-08-30T11:49:08.623Z,23.93
2017-08-30T11:54:12.997Z,12.43
2017-08-30T11:59:16.518Z,15.23
2017-08-30T12:04:22.533Z,15.33
2017-08-30T12:09:24.889Z,9.70
2017-08-30T12:14:29.765Z,9.87
2017-08-30T12:19:32.298Z,17.03
2017-08-30T12:24:35.024Z,11.23
2017-08-30T12:29:37.339Z,21.43
2017-08-30T12:34:39.812Z,20.53
2017-08-30T12:39:42.353Z,13.37
2017-08-30T12:44:44.857Z,14.00
2017-08-30T12:49:47.908Z,12.20
2017-08-30T12:54:50.386Z,11.40
2017-08-30T12:59:52.763Z,12.00
2017-08-30T13:04:55.207Z,13.07
2017-08-30T13:09:57.692Z,20.80
2017-08-30T13:15:09.176Z,12.07
2017-08-30T13:20:12.398Z,29.97
2017-08-30T13:25:14.929Z,19.90
2017-08-30T13:30:17.965Z,17.50
2017-08-30T13:35:20.530Z,12.37
2017-08-30T13:40:24.282Z,20.53
2017-08-30T13:45:27.589Z,12.50
2017-08-30T13:50:30.288Z,18.80
2017-08-30T13:55:32.706Z,13.03
2017-08-30T14:00:35.046Z,16.83
2017-08-30T14:05:38.117Z,21.13
2017-08-30T14:10:40.088Z,14.37
2017-08-30T14:15:42.135Z,13.83
2017-08-30T14:20:44.129Z,17.63
2017-08-30T14:25:46.845Z,16.30
2017-08-30T14:30:49.181Z,17.47
2017-08-30T14:35:51.500Z,16.40
2017-08-30T14:40:53.766Z,17.20
2017-08-30T14:45:56.085Z,16.50
2017-08-30T14:50:59.643Z,13.33
2017-08-30T14:56:01.895Z,14.23
2017-08-30T15:01:04.132Z,15.10
2017-08-30T15:06:06.097Z,17.80
2017-08-30T15:11:08.558Z,15.37
2017-08-30T15:16:10.852Z,24.33
2017-08-30T15:21:12.845Z,15.07
2017-08-30T15:26:14.825Z,24.40
2017-08-30T15:31:16.785Z,14.87
2017-08-30T15:36:18.946Z,14.43
2017-08-30T15:41:21.152Z,15.33
2017-08-30T15:46:23.193Z,27.30
2017-08-30T15:51:25.185Z,13.50
2017-08-30T15:56:27.132Z,16.50
2017-08-30T16:01:29.109Z,21.70
2017-08-30T16:06:31.049Z,19.30
2017-08-30T16:11:34.304Z,21.73
2017-08-30T16:16:36.568Z,20.40
2017-08-30T16:21:39.876Z,18.67
2017-08-30T16:26:42.159Z,24.70
2017-08-30T16:31:44.388Z,20.50
2017-08-30T16:36:46.807Z,18.27
2017-08-30T16:41:49.265Z,18.03
2017-08-30T16:46:52.077Z,18.60
2017-08-30T16:51:54.522Z,25.27
2017-08-30T16:56:56.878Z,22.33
2017-08-30T17:01:59.254Z,33.60
2017-08-30T17:07:01.541Z,30.20
2017-08-30T17:12:04.058Z,21.33
2017-08-30T17:17:06.383Z,24.83
2017-08-30T17:22:08.914Z,24.03
2017-08-30T17:27:11.209Z,30.63
2017-08-30T17:32:13.231Z,22.63
2017-08-30T17:37:15.206Z,23.73
2017-08-30T17:42:18.635Z,25.13
2017-08-30T17:47:20.705Z,28.83
2017-08-30T17:52:22.703Z,25.50
2017-08-30T17:57:24.856Z,30.10
2017-08-30T18:02:26.877Z,25.23
2017-08-30T18:07:28.875Z,35.77
2017-08-30T18:12:30.914Z,27.80
2017-08-30T18:17:33.266Z,24.93
2017-08-30T18:22:37.795Z,28.80
2017-08-30T18:27:42.344Z,28.50
2017-08-30T18:32:44.890Z,38.93
2017-08-30T18:37:52.337Z,41.57
2017-08-30T18:42:58.227Z,40.93
2017-08-30T18:48:01.313Z,54.10
2017-08-30T18:53:03.447Z,76.77
2017-08-30T18:58:06.027Z,53.70
2017-08-30T19:03:08.085Z,62.73
2017-08-30T19:08:10.386Z,65.27
2017-08-30T19:13:12.958Z,74.30
2017-08-30T19:18:15.246Z,68.63
2017-08-30T19:23:17.749Z,92.53
2017-08-30T19:28:19.905Z,74.60
2017-08-30T19:33:22.061Z,76.83
2017-08-30T19:38:24.301Z,78.77
2017-08-30T19:43:26.659Z,93.83
2017-08-30T19:48:33.833Z,81.73
2017-08-30T19:53:36.181Z,74.63
2017-08-30T19:58:38.595Z,74.33
2017-08-30T20:03:44.249Z,75.57
2017-08-30T20:08:46.491Z,93.07
2017-08-30T20:13:48.773Z,77.77
2017-08-30T20:18:51.061Z,81.17
2017-08-30T20:23:54.643Z,80.37
2017-08-30T20:28:56.635Z,81.10
2017-08-30T20:33:58.590Z,85.60
2017-08-30T20:39:00.572Z,76.50
2017-08-30T20:44:02.621Z,72.97
2017-08-30T20:49:04.656Z,81.17
2017-08-30T20:54:06.619Z,94.00
2017-08-30T20:59:08.543Z,98.93
2017-08-30T21:04:10.528Z,82.97
2017-08-30T21:09:12.528Z,100.43
2017-08-30T21:14:14.522Z,106.23
2017-08-30T21:19:16.505Z,103.53
2017-08-30T21:24:18.585Z,98.50
2017-08-30T21:29:20.720Z,124.33
2017-08-30T21:34:23.291Z,121.60
2017-08-30T21:39:25.312Z,118.53
2017-08-30T21:44:27.271Z,113.47
2017-08-30T21:49:29.215Z,117.13
2017-08-30T21:54:33.120Z,120.80
2017-08-30T21:59:36.692Z,115.40
2017-08-30T22:04:38.833Z,112.10
2017-08-30T22:09:40.793Z,131.97
2017-08-30T22:14:42.792Z,119.10
2017-08-30T22:19:44.795Z,107.97
2017-08-30T22:24:46.843Z,118.07
2017-08-30T22:29:48.951Z,119.90
2017-08-30T22:34:51.054Z,123.67
2017-08-30T22:39:53.165Z,110.80
2017-08-30T22:44:55.147Z,96.00
2017-08-30T22:49:57.128Z,81.47
2017-08-30T22:54:59.112Z,84.60
2017-08-30T23:00:01.087Z,73.00
2017-08-30T23:05:03.852Z,60.17
2017-08-30T23:10:06.493Z,49.20
2017-08-30T23:15:08.453Z,75.33
2017-08-30T23:20:10.931Z,71.70
2017-08-30T23:25:12.971Z,88.47
2017-08-30T23:30:14.950Z,96.33
2017-08-30T23:35:16.943Z,102.33
2017-08-30T23:40:19.067Z,104.83
2017-08-30T23:45:21.333Z,82.37
2017-08-30T23:50:23.420Z,75.63
2017-08-30T23:55:25.390Z,73.77
